sensor_id;sensor_type;location;lat;lon;timestamp;pressure;altitude;pressure_sealevel;temperature;humidity
10946;BME280;5525;42.648;23.368;2022-10-04T00:02:15;94880.44;;;10.77;100.00
10946;BME280;5525;42.648;23.368;2022-10-04T00:04:46;94889.81;;;10.79;100.00
10946;BME280;5525;42.648;23.368;2022-10-04T00:07:19;94868.88;;;10.59;100.00
10946;BME280;5525;42.648;23.368;2022-10-04T00:09:54;94838.69;;;10.40;100.00
10946;BME280;5525;42.648;23.368;2022-10-04T00:12:26;94899.19;;;10.65;100.00
10946;BME280;5525;42.648;23.368;2022-10-04T00:14:56;94904.44;;;10.61;100.00
10946;BME280;5525;42.648;23.368;2022-10-04T00:17:26;94900.94;;;10.61;100.00
10946;BME280;5525;42.648;23.368;2022-10-04T00:19:56;94904.75;;;10.60;100.00
10946;BME280;5525;42.648;23.368;2022-10-04T00:22:26;94898.56;;;10.68;100.00
10946;BME280;5525;42.648;23.368;2022-10-04T00:25:33;94894.41;;;10.70;100.00
10946;BME280;5525;42.648;23.368;2022-10-04T00:28:29;94875.69;;;10.65;100.00
10946;BME280;5525;42.648;23.368;2022-10-04T00:31:18;94879.97;;;10.75;100.00
10946;BME280;5525;42.648;23.368;2022-10-04T00:33:47;94882.03;;;10.78;100.00
10946;BME280;5525;42.648;23.368;2022-10-04T00:36:39;94866.47;;;10.75;100.00
10946;BME280;5525;42.648;23.368;2022-10-04T00:39:37;94880.13;;;10.78;100.00
10946;BME280;5525;42.648;23.368;2022-10-04T00:42:23;94861.88;;;10.67;100.00
10946;BME280;5525;42.648;23.368;2022-10-04T00:44:57;94871.06;;;10.74;100.00
10946;BME280;5525;42.648;23.368;2022-10-04T00:47:30;94869.97;;;10.67;100.00
10946;BME280;5525;42.648;23.368;2022-10-04T00:50:06;94852.97;;;10.58;100.00
10946;BME280;5525;42.648;23.368;2022-10-04T00:52:40;94860.59;;;10.56;100.00
10946;BME280;5525;42.648;23.368;2022-10-04T00:55:09;94851.84;;;10.50;100.00
10946;BME280;5525;42.648;23.368;2022-10-04T00:57:43;94843.28;;;10.31;100.00
10946;BME280;5525;42.648;23.368;2022-10-04T01:00:14;94848.69;;;10.31;100.00
10946;BME280;5525;42.648;23.368;2022-10-04T01:02:50;94848.88;;;10.35;100.00
10946;BME280;5525;42.648;23.368;2022-10-04T01:05:21;94847.75;;;10.36;100.00
10946;BME280;5525;42.648;23.368;2022-10-04T01:07:54;94823.94;;;10.20;100.00
10946;BME280;5525;42.648;23.368;2022-10-04T01:10:25;94842.66;;;10.25;100.00
10946;BME280;5525;42.648;23.368;2022-10-04T01:13:00;94852.84;;;10.29;100.00
10946;BME280;5525;42.648;23.368;2022-10-04T01:15:34;94840.91;;;10.21;100.00
10946;BME280;5525;42.648;23.368;2022-10-04T01:18:10;94851.53;;;10.26;100.00
10946;BME280;5525;42.648;23.368;2022-10-04T01:20:40;94848.53;;;10.27;100.00
10946;BME280;5525;42.648;23.368;2022-10-04T01:26:37;94845.50;;;10.29;100.00
10946;BME280;5525;42.648;23.368;2022-10-04T01:29:11;94837.25;;;10.25;100.00
10946;BME280;5525;42.648;23.368;2022-10-04T01:31:40;94832.47;;;10.22;100.00
10946;BME280;5525;42.648;23.368;2022-10-04T01:34:07;94822.00;;;10.21;100.00
10946;BME280;5525;42.648;23.368;2022-10-04T01:36:34;94788.47;;;9.96;100.00
10946;BME280;5525;42.648;23.368;2022-10-04T01:39:03;94804.03;;;9.99;100.00
10946;BME280;5525;42.648;23.368;2022-10-04T01:41:38;94846.16;;;10.17;100.00
10946;BME280;5525;42.648;23.368;2022-10-04T01:44:10;94831.66;;;10.05;100.00
10946;BME280;5525;42.648;23.368;2022-10-04T01:46:40;94824.84;;;9.99;100.00
10946;BME280;5525;42.648;23.368;2022-10-04T01:49:11;94831.22;;;10.11;100.00
10946;BME280;5525;42.648;23.368;2022-10-04T01:51:43;94844.56;;;10.08;100.00
10946;BME280;5525;42.648;23.368;2022-10-04T01:54:17;94824.97;;;10.02;100.00
10946;BME280;5525;42.648;23.368;2022-10-04T01:56:50;94794.81;;;9.75;100.00
10946;BME280;5525;42.648;23.368;2022-10-04T01:59:22;94845.97;;;10.05;100.00
10946;BME280;5525;42.648;23.368;2022-10-04T02:01:54;94847.06;;;9.96;100.00
10946;BME280;5525;42.648;23.368;2022-10-04T02:04:31;94824.34;;;9.88;100.00
10946;BME280;5525;42.648;23.368;2022-10-04T02:07:00;94844.19;;;9.92;100.00
10946;BME280;5525;42.648;23.368;2022-10-04T02:09:32;94837.00;;;9.71;100.00
10946;BME280;5525;42.648;23.368;2022-10-04T02:12:01;94854.78;;;9.89;100.00
10946;BME280;5525;42.648;23.368;2022-10-04T02:14:31;94852.09;;;9.89;100.00
10946;BME280;5525;42.648;23.368;2022-10-04T02:16:59;94847.97;;;9.83;100.00
10946;BME280;5525;42.648;23.368;2022-10-04T02:19:33;94831.09;;;9.60;100.00
10946;BME280;5525;42.648;23.368;2022-10-04T02:22:02;94837.00;;;9.71;100.00
10946;BME280;5525;42.648;23.368;2022-10-04T02:24:32;94856.34;;;9.73;100.00
10946;BME280;5525;42.648;23.368;2022-10-04T02:27:02;94863.06;;;9.84;100.00
10946;BME280;5525;42.648;23.368;2022-10-04T02:29:30;94854.31;;;9.78;100.00
10946;BME280;5525;42.648;23.368;2022-10-04T02:31:58;94865.25;;;9.82;100.00
10946;BME280;5525;42.648;23.368;2022-10-04T02:34:43;94859.38;;;9.71;100.00
10946;BME280;5525;42.648;23.368;2022-10-04T02:37:12;94859.84;;;9.73;100.00
10946;BME280;5525;42.648;23.368;2022-10-04T02:39:42;94852.06;;;9.72;100.00
10946;BME280;5525;42.648;23.368;2022-10-04T02:42:15;94838.06;;;9.53;100.00
10946;BME280;5525;42.648;23.368;2022-10-04T02:44:46;94866.31;;;9.64;100.00
10946;BME280;5525;42.648;23.368;2022-10-04T02:47:18;94872.53;;;9.73;100.00
10946;BME280;5525;42.648;23.368;2022-10-04T02:49:48;94887.59;;;9.74;100.00
10946;BME280;5525;42.648;23.368;2022-10-04T02:52:22;94882.34;;;9.69;100.00
10946;BME280;5525;42.648;23.368;2022-10-04T02:54:56;94850.22;;;9.42;100.00
10946;BME280;5525;42.648;23.368;2022-10-04T02:57:28;94894.88;;;9.73;100.00
10946;BME280;5525;42.648;23.368;2022-10-04T03:00:06;94889.53;;;9.82;100.00
10946;BME280;5525;42.648;23.368;2022-10-04T03:02:36;94906.34;;;9.79;100.00
10946;BME280;5525;42.648;23.368;2022-10-04T03:05:07;94902.56;;;9.88;100.00
10946;BME280;5525;42.648;23.368;2022-10-04T03:07:35;94895.91;;;9.94;100.00
10946;BME280;5525;42.648;23.368;2022-10-04T03:10:06;94859.63;;;9.61;100.00
10946;BME280;5525;42.648;23.368;2022-10-04T03:12:37;94911.59;;;9.92;100.00
10946;BME280;5525;42.648;23.368;2022-10-04T03:15:06;94904.78;;;9.86;100.00
10946;BME280;5525;42.648;23.368;2022-10-04T03:17:35;94910.66;;;9.88;100.00
10946;BME280;5525;42.648;23.368;2022-10-04T03:20:02;94869.47;;;9.66;100.00
10946;BME280;5525;42.648;23.368;2022-10-04T03:22:30;94909.84;;;9.88;100.00
10946;BME280;5525;42.648;23.368;2022-10-04T03:24:58;94893.75;;;9.66;100.00
10946;BME280;5525;42.648;23.368;2022-10-04T03:27:28;94886.72;;;9.56;100.00
10946;BME280;5525;42.648;23.368;2022-10-04T03:30:00;94894.88;;;9.65;100.00
10946;BME280;5525;42.648;23.368;2022-10-04T03:32:28;94911.72;;;9.79;100.00
10946;BME280;5525;42.648;23.368;2022-10-04T03:34:58;94903.47;;;9.75;100.00
10946;BME280;5525;42.648;23.368;2022-10-04T03:37:27;94903.56;;;9.62;100.00
10946;BME280;5525;42.648;23.368;2022-10-04T03:39:56;94897.06;;;9.54;100.00
10946;BME280;5525;42.648;23.368;2022-10-04T03:42:25;94928.66;;;9.62;100.00
10946;BME280;5525;42.648;23.368;2022-10-04T03:44:56;94928.16;;;9.60;100.00
10946;BME280;5525;42.648;23.368;2022-10-04T03:47:30;94919.88;;;9.57;100.00
10946;BME280;5525;42.648;23.368;2022-10-04T03:50:02;94925.28;;;9.57;100.00
10946;BME280;5525;42.648;23.368;2022-10-04T03:52:32;94925.69;;;9.42;100.00
10946;BME280;5525;42.648;23.368;2022-10-04T03:55:04;94895.97;;;9.25;100.00
10946;BME280;5525;42.648;23.368;2022-10-04T03:57:33;94927.56;;;9.41;100.00
10946;BME280;5525;42.648;23.368;2022-10-04T04:00:04;94899.69;;;9.15;100.00
10946;BME280;5525;42.648;23.368;2022-10-04T04:02:36;94879.78;;;8.94;100.00
10946;BME280;5525;42.648;23.368;2022-10-04T04:05:11;94931.50;;;9.35;100.00
10946;BME280;5525;42.648;23.368;2022-10-04T04:07:45;94940.28;;;9.41;100.00
10946;BME280;5525;42.648;23.368;2022-10-04T04:10:17;94938.50;;;9.36;100.00
10946;BME280;5525;42.648;23.368;2022-10-04T04:12:52;94926.13;;;9.35;100.00
10946;BME280;5525;42.648;23.368;2022-10-04T04:15:21;94945.19;;;9.47;100.00
10946;BME280;5525;42.648;23.368;2022-10-04T04:17:53;94951.06;;;9.41;100.00
10946;BME280;5525;42.648;23.368;2022-10-04T04:20:24;94946.72;;;9.31;100.00
10946;BME280;5525;42.648;23.368;2022-10-04T04:23:04;94929.09;;;9.25;100.00
10946;BME280;5525;42.648;23.368;2022-10-04T04:25:33;94922.56;;;9.18;100.00
10946;BME280;5525;42.648;23.368;2022-10-04T04:28:12;94951.91;;;9.28;100.00
10946;BME280;5525;42.648;23.368;2022-10-04T04:30:44;94950.28;;;9.18;100.00
10946;BME280;5525;42.648;23.368;2022-10-04T04:33:19;94911.91;;;8.91;100.00
10946;BME280;5525;42.648;23.368;2022-10-04T04:35:52;94949.97;;;9.20;100.00
10946;BME280;5525;42.648;23.368;2022-10-04T04:38:22;94929.47;;;9.10;100.00
10946;BME280;5525;42.648;23.368;2022-10-04T04:40:51;94930.03;;;9.21;100.00
10946;BME280;5525;42.648;23.368;2022-10-04T04:43:20;94889.03;;;9.02;100.00
10946;BME280;5525;42.648;23.368;2022-10-04T04:45:51;94947.88;;;9.39;100.00
10946;BME280;5525;42.648;23.368;2022-10-04T04:48:24;94929.25;;;9.29;100.00
10946;BME280;5525;42.648;23.368;2022-10-04T04:50:55;94969.22;;;9.57;100.00
10946;BME280;5525;42.648;23.368;2022-10-04T04:53:26;94978.25;;;9.61;100.00
10946;BME280;5525;42.648;23.368;2022-10-04T04:55:56;94949.84;;;9.55;100.00
10946;BME280;5525;42.648;23.368;2022-10-04T04:58:26;94972.72;;;9.58;100.00
10946;BME280;5525;42.648;23.368;2022-10-04T05:00:59;94930.44;;;9.36;100.00
10946;BME280;5525;42.648;23.368;2022-10-04T05:03:28;94973.00;;;9.56;100.00
10946;BME280;5525;42.648;23.368;2022-10-04T05:05:57;94949.44;;;9.40;100.00
10946;BME280;5525;42.648;23.368;2022-10-04T05:08:28;94969.94;;;9.49;100.00
10946;BME280;5525;42.648;23.368;2022-10-04T05:11:01;94966.03;;;9.55;100.00
10946;BME280;5525;42.648;23.368;2022-10-04T05:13:33;94966.03;;;9.55;100.00
10946;BME280;5525;42.648;23.368;2022-10-04T05:16:03;94972.44;;;9.68;100.00
10946;BME280;5525;42.648;23.368;2022-10-04T05:18:32;94968.19;;;9.75;100.00
10946;BME280;5525;42.648;23.368;2022-10-04T05:21:04;94964.38;;;9.76;100.00
10946;BME280;5525;42.648;23.368;2022-10-04T05:23:33;94973.84;;;10.04;100.00
10946;BME280;5525;42.648;23.368;2022-10-04T05:26:01;94943.84;;;10.06;100.00
10946;BME280;5525;42.648;23.368;2022-10-04T05:28:29;94981.28;;;10.47;100.00
10946;BME280;5525;42.648;23.368;2022-10-04T05:31:19;94962.72;;;10.45;100.00
10946;BME280;5525;42.648;23.368;2022-10-04T05:33:51;94988.94;;;10.62;100.00
10946;BME280;5525;42.648;23.368;2022-10-04T05:36:40;94980.53;;;10.55;100.00
10946;BME280;5525;42.648;23.368;2022-10-04T05:39:20;94976.19;;;10.37;100.00
10946;BME280;5525;42.648;23.368;2022-10-04T05:41:55;94971.41;;;10.34;100.00
10946;BME280;5525;42.648;23.368;2022-10-04T05:44:25;94933.88;;;10.06;100.00
10946;BME280;5525;42.648;23.368;2022-10-04T05:46:55;94966.63;;;10.31;100.00
10946;BME280;5525;42.648;23.368;2022-10-04T05:49:25;95007.03;;;10.53;100.00
10946;BME280;5525;42.648;23.368;2022-10-04T05:51:56;94997.13;;;10.40;100.00
10946;BME280;5525;42.648;23.368;2022-10-04T05:54:27;94994.34;;;10.53;100.00
10946;BME280;5525;42.648;23.368;2022-10-04T05:57:16;95020.56;;;10.70;100.00
10946;BME280;5525;42.648;23.368;2022-10-04T06:00:03;95020.28;;;10.88;100.00
10946;BME280;5525;42.648;23.368;2022-10-04T06:02:45;95023.75;;;10.89;100.00
10946;BME280;5525;42.648;23.368;2022-10-04T06:05:22;95029.47;;;10.87;100.00
10946;BME280;5525;42.648;23.368;2022-10-04T06:07:57;95018.81;;;10.74;100.00
10946;BME280;5525;42.648;23.368;2022-10-04T06:10:37;95036.91;;;10.73;100.00
10946;BME280;5525;42.648;23.368;2022-10-04T06:13:15;95035.97;;;10.61;100.00
10946;BME280;5525;42.648;23.368;2022-10-04T06:15:55;95045.00;;;10.56;100.00
10946;BME280;5525;42.648;23.368;2022-10-04T06:18:44;94979.69;;;10.29;100.00
10946;BME280;5525;42.648;23.368;2022-10-04T06:21:26;95017.03;;;10.52;100.00
10946;BME280;5525;42.648;23.368;2022-10-04T06:23:58;95022.50;;;10.78;100.00
10946;BME280;5525;42.648;23.368;2022-10-04T06:26:32;95000.41;;;10.93;100.00
10946;BME280;5525;42.648;23.368;2022-10-04T06:29:02;95052.38;;;11.41;100.00
10946;BME280;5525;42.648;23.368;2022-10-04T06:34:54;95055.88;;;11.75;99.81
10946;BME280;5525;42.648;23.368;2022-10-04T06:40:38;95063.16;;;11.92;96.11
10946;BME280;5525;42.648;23.368;2022-10-04T06:43:30;95055.53;;;12.32;94.75
10946;BME280;5525;42.648;23.368;2022-10-04T06:46:07;95060.69;;;12.54;91.13
10946;BME280;5525;42.648;23.368;2022-10-04T06:51:51;95065.22;;;13.08;83.73
10946;BME280;5525;42.648;23.368;2022-10-04T06:54:34;95064.94;;;13.21;84.68
10946;BME280;5525;42.648;23.368;2022-10-04T06:57:35;95063.00;;;13.42;82.41
10946;BME280;5525;42.648;23.368;2022-10-04T07:00:09;95057.16;;;13.40;79.26
10946;BME280;5525;42.648;23.368;2022-10-04T07:02:42;95056.97;;;12.96;79.92
10946;BME280;5525;42.648;23.368;2022-10-04T07:05:16;95073.00;;;12.80;83.25
10946;BME280;5525;42.648;23.368;2022-10-04T07:07:47;95063.03;;;13.22;79.88
10946;BME280;5525;42.648;23.368;2022-10-04T07:10:38;95069.44;;;15.32;66.07
10946;BME280;5525;42.648;23.368;2022-10-04T07:13:27;95053.53;;;14.46;66.54
10946;BME280;5525;42.648;23.368;2022-10-04T07:15:59;95061.00;;;14.05;70.80
10946;BME280;5525;42.648;23.368;2022-10-04T07:18:33;95040.28;;;14.00;70.21
10946;BME280;5525;42.648;23.368;2022-10-04T07:21:04;95072.97;;;14.24;70.59
10946;BME280;5525;42.648;23.368;2022-10-04T07:23:36;95074.94;;;14.15;71.20
10946;BME280;5525;42.648;23.368;2022-10-04T07:26:19;95078.34;;;14.12;68.36
10946;BME280;5525;42.648;23.368;2022-10-04T07:28:49;95077.06;;;13.65;72.04
10946;BME280;5525;42.648;23.368;2022-10-04T07:31:35;95047.03;;;13.08;73.48
10946;BME280;5525;42.648;23.368;2022-10-04T07:34:08;95084.34;;;13.52;73.39
10946;BME280;5525;42.648;23.368;2022-10-04T07:36:42;95088.69;;;13.66;71.25
10946;BME280;5525;42.648;23.368;2022-10-04T07:39:13;95077.25;;;13.60;69.85
10946;BME280;5525;42.648;23.368;2022-10-04T07:41:48;95072.63;;;13.40;72.10
10946;BME280;5525;42.648;23.368;2022-10-04T07:44:23;95086.53;;;13.59;71.83
10946;BME280;5525;42.648;23.368;2022-10-04T07:46:54;95069.44;;;13.38;71.39
10946;BME280;5525;42.648;23.368;2022-10-04T07:49:23;95070.63;;;12.79;74.46
10946;BME280;5525;42.648;23.368;2022-10-04T07:52:02;95097.66;;;12.87;75.84
10946;BME280;5525;42.648;23.368;2022-10-04T07:54:35;95105.44;;;12.68;74.90
10946;BME280;5525;42.648;23.368;2022-10-04T07:57:13;95111.78;;;12.72;73.35
10946;BME280;5525;42.648;23.368;2022-10-04T08:00:08;95088.13;;;12.52;74.05
10946;BME280;5525;42.648;23.368;2022-10-04T08:02:46;95091.59;;;12.90;71.08
10946;BME280;5525;42.648;23.368;2022-10-04T08:05:20;95112.97;;;12.54;73.65
10946;BME280;5525;42.648;23.368;2022-10-04T08:08:06;95098.47;;;12.50;74.36
10946;BME280;5525;42.648;23.368;2022-10-04T08:10:47;95101.66;;;12.90;72.72
10946;BME280;5525;42.648;23.368;2022-10-04T08:13:25;95094.25;;;12.99;69.42
10946;BME280;5525;42.648;23.368;2022-10-04T08:15:58;95105.88;;;13.08;69.88
10946;BME280;5525;42.648;23.368;2022-10-04T08:18:39;95111.69;;;13.18;68.78
10946;BME280;5525;42.648;23.368;2022-10-04T08:21:15;95093.13;;;13.49;66.96
10946;BME280;5525;42.648;23.368;2022-10-04T08:23:58;95111.91;;;13.96;64.95
10946;BME280;5525;42.648;23.368;2022-10-04T08:26:44;95112.59;;;14.25;62.24
10946;BME280;5525;42.648;23.368;2022-10-04T08:29:32;95107.56;;;14.72;60.30
10946;BME280;5525;42.648;23.368;2022-10-04T08:32:27;95107.00;;;15.78;56.61
10946;BME280;5525;42.648;23.368;2022-10-04T08:35:17;95064.59;;;20.56;42.59
10946;BME280;5525;42.648;23.368;2022-10-04T08:37:58;95090.00;;;23.25;36.04
10946;BME280;5525;42.648;23.368;2022-10-04T08:41:01;95102.44;;;24.28;32.30
10946;BME280;5525;42.648;23.368;2022-10-04T08:43:57;95083.69;;;23.53;33.56
10946;BME280;5525;42.648;23.368;2022-10-04T08:47:02;95096.59;;;25.50;30.39
10946;BME280;5525;42.648;23.368;2022-10-04T08:53:10;95093.06;;;26.91;28.70
10946;BME280;5525;42.648;23.368;2022-10-04T08:55:59;95103.03;;;22.11;33.92
10946;BME280;5525;42.648;23.368;2022-10-04T08:59:01;95104.28;;;21.59;35.64
10946;BME280;5525;42.648;23.368;2022-10-04T09:01:46;95098.00;;;20.65;37.56
10946;BME280;5525;42.648;23.368;2022-10-04T09:04:41;95093.59;;;22.05;34.70
10946;BME280;5525;42.648;23.368;2022-10-04T09:10:35;95068.66;;;22.59;34.54
10946;BME280;5525;42.648;23.368;2022-10-04T09:13:13;95089.91;;;24.06;32.26
10946;BME280;5525;42.648;23.368;2022-10-04T09:15:53;95103.50;;;20.32;36.74
10946;BME280;5525;42.648;23.368;2022-10-04T09:18:33;95085.25;;;21.91;34.41
10946;BME280;5525;42.648;23.368;2022-10-04T09:21:11;95079.38;;;24.73;30.58
10946;BME280;5525;42.648;23.368;2022-10-04T09:24:15;95090.16;;;24.40;31.05
10946;BME280;5525;42.648;23.368;2022-10-04T09:26:50;95078.56;;;21.27;35.61
10946;BME280;5525;42.648;23.368;2022-10-04T09:29:46;95093.84;;;24.88;30.68
10946;BME280;5525;42.648;23.368;2022-10-04T09:32:39;95099.84;;;24.83;30.46
10946;BME280;5525;42.648;23.368;2022-10-04T09:38:43;95110.34;;;18.66;40.24
10946;BME280;5525;42.648;23.368;2022-10-04T09:44:50;95088.84;;;20.54;38.06
10946;BME280;5525;42.648;23.368;2022-10-04T09:47:42;95080.13;;;21.83;35.56
10946;BME280;5525;42.648;23.368;2022-10-04T09:50:37;95099.41;;;23.07;33.90
10946;BME280;5525;42.648;23.368;2022-10-04T09:53:19;95095.78;;;23.94;32.29
10946;BME280;5525;42.648;23.368;2022-10-04T09:56:03;95090.22;;;25.97;29.03
10946;BME280;5525;42.648;23.368;2022-10-04T09:58:47;95091.06;;;26.65;28.29
10946;BME280;5525;42.648;23.368;2022-10-04T10:01:26;95076.06;;;25.88;28.76
10946;BME280;5525;42.648;23.368;2022-10-04T10:04:28;95102.16;;;23.98;30.91
10946;BME280;5525;42.648;23.368;2022-10-04T10:07:14;95089.03;;;25.06;30.07
10946;BME280;5525;42.648;23.368;2022-10-04T10:09:52;95090.00;;;24.75;30.20
10946;BME280;5525;42.648;23.368;2022-10-04T10:13:12;95104.53;;;23.75;31.51
10946;BME280;5525;42.648;23.368;2022-10-04T10:16:11;95116.88;;;22.29;33.64
10946;BME280;5525;42.648;23.368;2022-10-04T10:18:52;95106.47;;;23.89;31.72
10946;BME280;5525;42.648;23.368;2022-10-04T10:21:39;95087.56;;;21.82;34.52
10946;BME280;5525;42.648;23.368;2022-10-04T10:24:37;95093.13;;;23.66;31.93
10946;BME280;5525;42.648;23.368;2022-10-04T10:27:22;95116.00;;;24.81;30.63
10946;BME280;5525;42.648;23.368;2022-10-04T10:30:18;95058.56;;;24.48;29.79
10946;BME280;5525;42.648;23.368;2022-10-04T10:33:22;95113.63;;;23.62;32.29
10946;BME280;5525;42.648;23.368;2022-10-04T10:36:27;95117.25;;;25.79;29.24
10946;BME280;5525;42.648;23.368;2022-10-04T10:39:20;95113.22;;;25.46;29.15
10946;BME280;5525;42.648;23.368;2022-10-04T10:42:10;95114.38;;;21.99;34.12
10946;BME280;5525;42.648;23.368;2022-10-04T10:44:56;95108.88;;;21.41;35.23
10946;BME280;5525;42.648;23.368;2022-10-04T10:47:42;95105.75;;;23.60;32.71
10946;BME280;5525;42.648;23.368;2022-10-04T10:50:39;95066.28;;;21.72;34.34
10946;BME280;5525;42.648;23.368;2022-10-04T10:56:55;95111.94;;;25.58;29.51
10946;BME280;5525;42.648;23.368;2022-10-04T10:59:51;95069.09;;;23.60;31.61
10946;BME280;5525;42.648;23.368;2022-10-04T11:06:12;95121.38;;;22.68;34.07
10946;BME280;5525;42.648;23.368;2022-10-04T11:09:08;95119.53;;;24.85;30.99
10946;BME280;5525;42.648;23.368;2022-10-04T11:11:53;95106.31;;;26.42;28.81
10946;BME280;5525;42.648;23.368;2022-10-04T11:14:49;95119.19;;;24.76;30.02
10946;BME280;5525;42.648;23.368;2022-10-04T11:17:42;95091.47;;;22.77;32.27
10946;BME280;5525;42.648;23.368;2022-10-04T11:26:54;95115.91;;;19.92;38.08
10946;BME280;5525;42.648;23.368;2022-10-04T11:29:45;95118.44;;;19.04;40.27
10946;BME280;5525;42.648;23.368;2022-10-04T11:35:48;95113.56;;;23.79;33.31
10946;BME280;5525;42.648;23.368;2022-10-04T11:38:45;95116.44;;;25.82;29.85
10946;BME280;5525;42.648;23.368;2022-10-04T11:41:24;95124.00;;;26.86;28.73
10946;BME280;5525;42.648;23.368;2022-10-04T11:44:37;95117.06;;;25.59;29.59
10946;BME280;5525;42.648;23.368;2022-10-04T11:47:20;95115.25;;;22.14;33.52
10946;BME280;5525;42.648;23.368;2022-10-04T11:50:06;95120.66;;;21.96;34.88
10946;BME280;5525;42.648;23.368;2022-10-04T11:53:12;95084.19;;;22.06;33.42
10946;BME280;5525;42.648;23.368;2022-10-04T11:56:00;95105.84;;;20.00;36.92
10946;BME280;5525;42.648;23.368;2022-10-04T11:58:45;95117.59;;;19.00;39.30
10946;BME280;5525;42.648;23.368;2022-10-04T12:07:30;95113.34;;;18.57;41.72
10946;BME280;5525;42.648;23.368;2022-10-04T12:10:13;95100.69;;;17.92;42.47
10946;BME280;5525;42.648;23.368;2022-10-04T12:12:57;95082.72;;;18.71;41.76
10946;BME280;5525;42.648;23.368;2022-10-04T12:15:45;95099.50;;;19.18;40.65
10946;BME280;5525;42.648;23.368;2022-10-04T12:18:55;95115.66;;;18.17;41.68
10946;BME280;5525;42.648;23.368;2022-10-04T12:21:40;95121.59;;;17.65;43.46
10946;BME280;5525;42.648;23.368;2022-10-04T12:24:32;95076.81;;;17.35;44.01
10946;BME280;5525;42.648;23.368;2022-10-04T12:27:16;95111.81;;;19.27;40.29
10946;BME280;5525;42.648;23.368;2022-10-04T12:30:18;95079.34;;;17.78;42.57
10946;BME280;5525;42.648;23.368;2022-10-04T12:32:57;95093.50;;;18.41;41.79
10946;BME280;5525;42.648;23.368;2022-10-04T12:35:38;95103.69;;;18.86;40.29
10946;BME280;5525;42.648;23.368;2022-10-04T12:38:34;95082.81;;;18.78;40.83
10946;BME280;5525;42.648;23.368;2022-10-04T12:41:11;95078.75;;;18.45;40.67
10946;BME280;5525;42.648;23.368;2022-10-04T12:43:50;95094.81;;;18.09;41.78
10946;BME280;5525;42.648;23.368;2022-10-04T12:46:31;95086.88;;;17.66;42.64
10946;BME280;5525;42.648;23.368;2022-10-04T12:49:14;95087.44;;;18.13;42.60
10946;BME280;5525;42.648;23.368;2022-10-04T12:51:52;95111.91;;;17.68;43.45
10946;BME280;5525;42.648;23.368;2022-10-04T12:54:38;95121.38;;;17.24;44.42
10946;BME280;5525;42.648;23.368;2022-10-04T12:57:18;95119.59;;;17.47;44.02
10946;BME280;5525;42.648;23.368;2022-10-04T12:59:58;95096.50;;;17.60;43.58
10946;BME280;5525;42.648;23.368;2022-10-04T13:05:38;95118.34;;;17.10;44.42
10946;BME280;5525;42.648;23.368;2022-10-04T13:08:19;95114.66;;;16.87;45.54
10946;BME280;5525;42.648;23.368;2022-10-04T13:11:01;95112.88;;;16.63;45.77
10946;BME280;5525;42.648;23.368;2022-10-04T13:13:47;95102.50;;;16.84;45.39
10946;BME280;5525;42.648;23.368;2022-10-04T13:16:26;95049.97;;;16.56;45.19
10946;BME280;5525;42.648;23.368;2022-10-04T13:19:05;95060.97;;;16.59;44.98
10946;BME280;5525;42.648;23.368;2022-10-04T13:22:03;95111.03;;;16.67;46.18
10946;BME280;5525;42.648;23.368;2022-10-04T13:24:40;95097.75;;;16.81;46.79
10946;BME280;5525;42.648;23.368;2022-10-04T13:30:04;95104.78;;;16.51;45.55
10946;BME280;5525;42.648;23.368;2022-10-04T13:32:41;95110.47;;;16.46;46.81
10946;BME280;5525;42.648;23.368;2022-10-04T13:35:14;95109.94;;;16.13;46.56
10946;BME280;5525;42.648;23.368;2022-10-04T13:37:53;95105.22;;;15.98;46.77
10946;BME280;5525;42.648;23.368;2022-10-04T13:43:41;95107.47;;;16.08;47.98
10946;BME280;5525;42.648;23.368;2022-10-04T13:46:24;95127.91;;;16.29;47.02
10946;BME280;5525;42.648;23.368;2022-10-04T13:49:02;95061.59;;;16.10;46.80
10946;BME280;5525;42.648;23.368;2022-10-04T13:51:54;95128.97;;;16.52;46.62
10946;BME280;5525;42.648;23.368;2022-10-04T13:54:45;95124.91;;;16.46;46.84
10946;BME280;5525;42.648;23.368;2022-10-04T13:57:39;95137.59;;;16.70;47.49
10946;BME280;5525;42.648;23.368;2022-10-04T14:00:10;95131.59;;;16.64;47.17
10946;BME280;5525;42.648;23.368;2022-10-04T14:03:01;95135.28;;;16.29;49.30
10946;BME280;5525;42.648;23.368;2022-10-04T14:05:56;95146.72;;;16.07;49.31
10946;BME280;5525;42.648;23.368;2022-10-04T14:08:42;95145.47;;;15.77;48.78
10946;BME280;5525;42.648;23.368;2022-10-04T14:11:38;95151.09;;;15.44;50.13
10946;BME280;5525;42.648;23.368;2022-10-04T14:14:26;95131.47;;;15.27;51.38
10946;BME280;5525;42.648;23.368;2022-10-04T14:17:38;95163.19;;;15.35;51.48
10946;BME280;5525;42.648;23.368;2022-10-04T14:20:36;95150.16;;;15.16;52.09
10946;BME280;5525;42.648;23.368;2022-10-04T14:26:48;95150.22;;;14.59;54.06
10946;BME280;5525;42.648;23.368;2022-10-04T14:29:50;95152.03;;;14.55;54.79
10946;BME280;5525;42.648;23.368;2022-10-04T14:32:47;95147.75;;;14.54;55.32
10946;BME280;5525;42.648;23.368;2022-10-04T14:35:24;95165.75;;;14.59;55.46
10946;BME280;5525;42.648;23.368;2022-10-04T14:38:25;95158.69;;;14.46;54.87
10946;BME280;5525;42.648;23.368;2022-10-04T14:41:28;95174.75;;;14.71;54.51
10946;BME280;5525;42.648;23.368;2022-10-04T14:50:15;95177.19;;;14.52;56.34
10946;BME280;5525;42.648;23.368;2022-10-04T14:53:09;95154.94;;;14.18;56.76
10946;BME280;5525;42.648;23.368;2022-10-04T14:56:11;95173.88;;;13.94;58.61
10946;BME280;5525;42.648;23.368;2022-10-04T14:58:53;95195.91;;;13.92;59.79
10946;BME280;5525;42.648;23.368;2022-10-04T15:01:23;95189.03;;;13.74;61.35
10946;BME280;5525;42.648;23.368;2022-10-04T15:04:16;95200.16;;;13.61;63.63
10946;BME280;5525;42.648;23.368;2022-10-04T15:06:51;95192.78;;;13.40;63.06
10946;BME280;5525;42.648;23.368;2022-10-04T15:09:44;95189.63;;;13.30;63.90
10946;BME280;5525;42.648;23.368;2022-10-04T15:12:39;95216.91;;;13.33;63.73